createdAt,value
2022-12-20T00:00:15.179Z,63.20
2022-12-20T00:02:39.186Z,54.07
2022-12-20T00:05:04.528Z,49.27
2022-12-20T00:07:28.197Z,53.10
2022-12-20T00:09:51.797Z,60.40
2022-12-20T00:12:15.392Z,48.57
2022-12-20T00:14:39.030Z,49.57
2022-12-20T00:17:02.726Z,57.30
2022-12-20T00:19:26.307Z,57.20
2022-12-20T00:21:51.362Z,59.17
2022-12-20T00:24:18.140Z,54.27
2022-12-20T00:26:44.358Z,60.27
2022-12-20T00:29:08.986Z,50.43
2022-12-20T00:31:33.480Z,52.57
2022-12-20T00:33:58.388Z,43.50
2022-12-20T00:36:23.431Z,48.10
2022-12-20T00:38:50.884Z,52.03
2022-12-20T00:41:17.880Z,53.77
2022-12-20T00:43:42.248Z,45.70
2022-12-20T00:46:07.770Z,52.23
2022-12-20T00:48:32.811Z,49.87
2022-12-20T00:51:00.512Z,51.67
2022-12-20T00:53:26.563Z,48.20
2022-12-20T00:55:51.862Z,51.13
2022-12-20T00:58:15.719Z,52.30
2022-12-20T01:00:40.513Z,49.53
2022-12-20T01:03:04.920Z,46.93
2022-12-20T01:05:28.767Z,49.83
2022-12-20T01:07:52.391Z,48.83
2022-12-20T01:10:16.671Z,46.30
2022-12-20T01:12:41.808Z,51.83
2022-12-20T01:15:07.026Z,49.50
2022-12-20T01:17:30.744Z,48.17
2022-12-20T01:19:54.368Z,53.53
2022-12-20T01:22:18.010Z,49.13
2022-12-20T01:24:41.864Z,47.73
2022-12-20T01:27:05.644Z,47.53
2022-12-20T01:29:30.709Z,43.77
2022-12-20T01:31:54.940Z,48.40
2022-12-20T01:34:18.986Z,43.93
2022-12-20T01:36:42.812Z,42.87
2022-12-20T01:39:09.612Z,39.97
2022-12-20T01:41:34.721Z,43.53
2022-12-20T01:44:01.303Z,42.83
2022-12-20T01:46:28.391Z,43.30
2022-12-20T01:48:57.736Z,40.13
2022-12-20T01:51:22.705Z,45.63
2022-12-20T01:53:46.754Z,36.40
2022-12-20T01:56:11.773Z,38.97
2022-12-20T01:58:36.595Z,38.87
2022-12-20T02:01:00.579Z,42.00
2022-12-20T02:03:25.876Z,39.03
2022-12-20T02:05:49.729Z,41.87
2022-12-20T02:08:16.293Z,43.57
2022-12-20T02:10:58.700Z,39.67
2022-12-20T02:13:34.312Z,37.17
2022-12-20T02:16:00.344Z,37.73
2022-12-20T02:18:31.010Z,43.00
2022-12-20T02:21:30.091Z,37.37
2022-12-20T02:24:56.078Z,39.27
2022-12-20T02:27:48.781Z,39.30
2022-12-20T02:30:18.659Z,39.73
2022-12-20T02:32:50.589Z,35.83
2022-12-20T02:35:19.717Z,39.70
2022-12-20T02:37:54.386Z,38.37
2022-12-20T02:40:24.789Z,38.23
2022-12-20T02:42:50.027Z,40.80
2022-12-20T02:45:17.963Z,41.53
2022-12-20T02:47:49.811Z,42.23
2022-12-20T02:50:14.670Z,36.27
2022-12-20T02:52:41.032Z,33.70
2022-12-20T02:55:07.476Z,33.90
2022-12-20T02:57:40.608Z,36.30
2022-12-20T03:00:11.021Z,39.70
2022-12-20T03:02:50.920Z,37.43
2022-12-20T03:05:14.794Z,35.90
2022-12-20T03:07:38.469Z,36.50
2022-12-20T03:10:02.227Z,34.87
2022-12-20T03:12:25.876Z,40.50
2022-12-20T03:14:49.628Z,34.10
2022-12-20T03:17:13.319Z,36.60
2022-12-20T03:19:38.505Z,40.57
2022-12-20T03:22:02.950Z,34.37
2022-12-20T03:24:28.243Z,37.13
2022-12-20T03:26:52.347Z,36.13
2022-12-20T03:29:18.994Z,37.00
2022-12-20T03:31:43.264Z,34.40
2022-12-20T03:34:08.439Z,33.90
2022-12-20T03:36:33.726Z,38.13
2022-12-20T03:39:01.085Z,34.70
2022-12-20T03:41:28.858Z,35.87
2022-12-20T03:43:52.629Z,32.40
2022-12-20T03:46:18.538Z,31.73
2022-12-20T03:48:42.372Z,31.13
2022-12-20T03:51:07.105Z,35.20
2022-12-20T03:53:33.325Z,34.97
2022-12-20T03:55:56.995Z,31.70
2022-12-20T03:58:21.231Z,37.70
2022-12-20T04:00:45.044Z,38.70
2022-12-20T04:03:35.742Z,36.10
2022-12-20T04:05:59.594Z,38.30
2022-12-20T04:08:24.275Z,36.90
2022-12-20T04:11:07.773Z,38.73
2022-12-20T04:13:33.482Z,37.43
2022-12-20T04:16:00.602Z,34.97
2022-12-20T04:18:27.758Z,37.87
2022-12-20T04:20:55.231Z,35.07
2022-12-20T04:23:23.663Z,37.00
2022-12-20T04:25:47.514Z,39.70
2022-12-20T04:28:14.754Z,35.53
2022-12-20T04:30:38.485Z,36.17
2022-12-20T04:33:04.342Z,38.87
2022-12-20T04:35:28.265Z,39.17
2022-12-20T04:37:52.002Z,37.40
2022-12-20T04:40:15.937Z,40.33
2022-12-20T04:42:45.665Z,36.63
2022-12-20T04:45:13.262Z,41.50
2022-12-20T04:47:36.988Z,41.53
2022-12-20T04:50:00.822Z,38.33
2022-12-20T04:52:47.705Z,45.47
2022-12-20T04:55:12.433Z,38.17
2022-12-20T04:57:36.134Z,40.33
2022-12-20T05:00:02.336Z,39.10
2022-12-20T05:02:27.822Z,42.23
2022-12-20T05:04:57.657Z,44.33
2022-12-20T05:07:21.566Z,39.70
2022-12-20T05:09:49.100Z,42.47
2022-12-20T05:12:12.767Z,39.80
2022-12-20T05:14:36.775Z,41.80
2022-12-20T05:17:00.502Z,42.10
2022-12-20T05:19:27.050Z,40.87
2022-12-20T05:22:08.061Z,38.33
2022-12-20T05:24:51.633Z,43.93
2022-12-20T05:27:26.019Z,44.30
2022-12-20T05:29:49.951Z,42.73
2022-12-20T05:32:13.796Z,43.57
2022-12-20T05:34:40.880Z,42.23
2022-12-20T05:37:04.577Z,39.27
2022-12-20T05:39:30.987Z,42.60
2022-12-20T05:41:58.043Z,38.60
2022-12-20T05:44:23.357Z,41.13
2022-12-20T05:46:50.225Z,36.77
2022-12-20T05:49:19.771Z,31.17
2022-12-20T05:51:45.565Z,32.10
2022-12-20T05:54:17.894Z,36.63
2022-12-20T05:56:48.513Z,33.50
2022-12-20T05:59:17.854Z,35.40
2022-12-20T06:01:43.156Z,35.83
2022-12-20T06:04:07.164Z,34.73
2022-12-20T06:06:30.999Z,36.93
2022-12-20T06:08:57.365Z,33.60
2022-12-20T06:11:32.920Z,39.87
2022-12-20T06:14:03.655Z,35.57
2022-12-20T06:16:27.443Z,35.07
2022-12-20T06:18:53.456Z,37.70
2022-12-20T06:21:18.152Z,35.37
2022-12-20T06:23:42.138Z,34.37
2022-12-20T06:26:10.549Z,33.73
2022-12-20T06:28:43.610Z,37.13
2022-12-20T06:31:07.749Z,39.57
2022-12-20T06:33:44.267Z,34.40
2022-12-20T06:36:09.468Z,38.47
2022-12-20T06:38:33.737Z,37.97
2022-12-20T06:40:57.404Z,38.20
2022-12-20T06:43:22.851Z,38.63
2022-12-20T06:45:46.616Z,36.17
2022-12-20T06:48:10.483Z,41.50
2022-12-20T06:50:34.924Z,36.37
2022-12-20T06:52:58.597Z,37.70
2022-12-20T06:55:22.325Z,37.70
2022-12-20T06:57:47.259Z,36.57
2022-12-20T07:00:15.151Z,43.53
2022-12-20T07:02:38.841Z,39.97
2022-12-20T07:05:02.644Z,38.70
2022-12-20T07:07:26.298Z,43.63
2022-12-20T07:09:50.049Z,40.03
2022-12-20T07:12:14.028Z,44.83
2022-12-20T07:14:37.932Z,49.90
2022-12-20T07:17:03.644Z,43.30
2022-12-20T07:19:27.741Z,42.97
2022-12-20T07:21:51.533Z,49.90
2022-12-20T07:24:15.204Z,48.90
2022-12-20T07:26:38.845Z,50.70
2022-12-20T07:29:02.490Z,47.67
2022-12-20T07:31:26.169Z,50.72
2022-12-20T07:33:51.392Z,56.70
2022-12-20T07:36:17.059Z,51.27
2022-12-20T07:38:41.053Z,54.77
2022-12-20T07:41:09.454Z,56.00
2022-12-20T07:43:33.125Z,57.57
2022-12-20T07:45:58.050Z,67.80
2022-12-20T07:48:22.217Z,67.55
2022-12-20T07:50:47.355Z,68.80
2022-12-20T07:53:12.210Z,61.93
2022-12-20T07:55:36.539Z,72.80
2022-12-20T07:58:06.501Z,68.10
2022-12-20T08:00:30.364Z,73.40
2022-12-20T08:03:01.605Z,69.70
2022-12-20T08:05:26.144Z,73.35
2022-12-20T08:07:58.441Z,70.27
2022-12-20T08:10:23.252Z,72.57
2022-12-20T08:12:48.419Z,71.43
2022-12-20T08:15:12.651Z,70.57
2022-12-20T08:17:36.275Z,74.63
2022-12-20T08:20:00.634Z,73.77
2022-12-20T08:22:24.460Z,73.57
2022-12-20T08:24:49.549Z,72.63
2022-12-20T08:27:13.231Z,68.10
2022-12-20T08:29:36.928Z,89.80
2022-12-20T08:32:01.157Z,82.47
2022-12-20T08:34:24.819Z,74.67
2022-12-20T08:36:48.479Z,73.72
2022-12-20T08:39:12.490Z,71.10
2022-12-20T08:41:37.804Z,68.53
2022-12-20T08:44:01.557Z,75.20
2022-12-20T08:46:25.258Z,70.73
2022-12-20T08:48:49.085Z,84.70
2022-12-20T08:51:13.379Z,84.03
2022-12-20T08:53:37.975Z,87.10
2022-12-20T08:56:07.267Z,89.50
2022-12-20T08:58:32.360Z,85.27
2022-12-20T09:00:56.018Z,88.05
2022-12-20T09:03:19.860Z,75.97
2022-12-20T09:05:48.112Z,83.57
2022-12-20T09:08:11.789Z,72.55
2022-12-20T09:10:35.409Z,67.73
2022-12-20T09:12:59.095Z,72.18
2022-12-20T09:15:24.148Z,71.22
2022-12-20T09:17:48.330Z,58.80
2022-12-20T09:20:12.472Z,68.15
2022-12-20T09:22:36.186Z,65.13
2022-12-20T09:24:59.791Z,68.10
2022-12-20T09:27:23.600Z,66.18
2022-12-20T09:29:47.191Z,61.78
2022-12-20T09:32:13.190Z,64.13
2022-12-20T09:34:36.777Z,68.95
2022-12-20T09:37:00.595Z,61.30
2022-12-20T09:39:24.193Z,68.70
2022-12-20T09:41:48.736Z,67.45
2022-12-20T09:44:19.400Z,58.97
2022-12-20T09:46:44.129Z,53.30
2022-12-20T09:49:13.069Z,50.83
2022-12-20T09:52:10.082Z,57.17
2022-12-20T09:54:43.187Z,52.28
2022-12-20T09:57:18.034Z,53.20
2022-12-20T09:59:49.276Z,53.05
2022-12-20T10:02:44.498Z,54.20
2022-12-20T10:05:00.332Z,46.58
2022-12-20T10:07:39.476Z,48.53
2022-12-20T10:10:28.106Z,52.35
2022-12-20T10:13:03.504Z,48.92
2022-12-20T10:15:32.786Z,46.65
2022-12-20T10:18:20.750Z,42.85
2022-12-20T10:21:00.959Z,40.20
2022-12-20T10:23:33.643Z,42.97
2022-12-20T10:25:59.338Z,40.65
2022-12-20T10:28:29.386Z,42.03
2022-12-20T10:30:53.077Z,41.42
2022-12-20T10:33:22.980Z,39.88
2022-12-20T10:35:48.364Z,42.83
2022-12-20T10:38:14.079Z,42.42
2022-12-20T10:43:25.746Z,35.65
2022-12-20T10:46:00.373Z,37.88
2022-12-20T10:48:35.521Z,40.25
2022-12-20T10:51:04.050Z,37.22
2022-12-20T10:53:28.783Z,33.75
2022-12-20T10:55:53.217Z,38.53
2022-12-20T10:58:22.402Z,47.67
2022-12-20T11:00:46.891Z,42.25
2022-12-20T11:03:19.308Z,37.70
2022-12-20T11:05:56.989Z,36.75
2022-12-20T11:08:36.620Z,32.88
2022-12-20T11:11:18.936Z,35.67
2022-12-20T11:13:42.821Z,37.85
2022-12-20T11:16:10.464Z,38.72
2022-12-20T11:18:46.075Z,36.15
2022-12-20T11:21:28.593Z,32.67
2022-12-20T11:24:04.066Z,38.67
2022-12-20T11:26:43.794Z,36.15
2022-12-20T11:29:28.995Z,33.38
2022-12-20T11:32:04.963Z,34.75
2022-12-20T11:34:42.313Z,32.58
2022-12-20T11:37:20.174Z,32.72
2022-12-20T11:40:18.347Z,33.97
2022-12-20T11:43:08.864Z,31.25
2022-12-20T11:45:41.503Z,28.55
2022-12-20T11:48:41.951Z,31.65
2022-12-20T11:51:16.697Z,29.63
2022-12-20T11:53:47.211Z,31.00
2022-12-20T11:56:19.459Z,30.17
2022-12-20T11:58:53.250Z,32.05
2022-12-20T12:01:21.072Z,26.77
2022-12-20T12:03:59.417Z,29.60
2022-12-20T12:06:28.855Z,31.08
2022-12-20T12:08:56.844Z,22.88
2022-12-20T12:14:30.147Z,26.48
2022-12-20T12:17:00.015Z,26.65
2022-12-20T12:19:28.051Z,26.27
2022-12-20T12:21:59.459Z,24.77
2022-12-20T12:24:28.035Z,28.08
2022-12-20T12:26:53.801Z,27.63
2022-12-20T12:29:20.632Z,27.20
2022-12-20T12:31:48.812Z,24.83
2022-12-20T12:34:32.167Z,23.90
2022-12-20T12:37:40.488Z,22.85
2022-12-20T12:40:53.152Z,27.95
2022-12-20T12:43:49.714Z,24.05
2022-12-20T12:46:17.481Z,25.10
2022-12-20T12:48:45.071Z,23.20
2022-12-20T12:51:09.765Z,25.85
2022-12-20T12:53:39.252Z,25.77
2022-12-20T12:56:45.444Z,26.08
2022-12-20T12:59:42.191Z,20.45
2022-12-20T13:02:42.576Z,25.92
2022-12-20T13:05:35.622Z,26.15
2022-12-20T13:08:00.815Z,31.42
2022-12-20T13:11:01.735Z,31.50
2022-12-20T13:13:25.765Z,29.63
2022-12-20T13:16:12.676Z,26.55
2022-12-20T13:18:36.457Z,24.52
2022-12-20T13:21:33.003Z,29.17
2022-12-20T13:24:39.042Z,20.85
2022-12-20T13:27:04.242Z,25.95
2022-12-20T13:29:34.427Z,22.42
2022-12-20T13:31:59.575Z,23.52
2022-12-20T13:34:55.797Z,22.05
2022-12-20T13:37:30.121Z,24.90
2022-12-20T13:39:54.229Z,22.05
2022-12-20T13:42:36.041Z,25.38
2022-12-20T13:45:05.933Z,22.90
2022-12-20T13:47:47.712Z,22.40
2022-12-20T13:50:35.679Z,21.23
2022-12-20T13:53:00.164Z,22.52
2022-12-20T13:55:39.720Z,25.15
2022-12-20T13:58:13.099Z,23.65
2022-12-20T14:00:37.117Z,21.83
2022-12-20T14:03:03.495Z,29.05
2022-12-20T14:05:33.459Z,24.70
2022-12-20T14:08:02.948Z,24.23
2022-12-20T14:10:30.392Z,26.70
2022-12-20T14:12:55.327Z,21.30
2022-12-20T14:15:31.696Z,23.30
2022-12-20T14:17:55.851Z,24.35
2022-12-20T14:20:26.229Z,29.33
2022-12-20T14:23:04.178Z,22.27
2022-12-20T14:25:35.088Z,24.02
2022-12-20T14:27:59.763Z,23.73
2022-12-20T14:30:32.213Z,23.95
2022-12-20T14:32:56.697Z,23.50
2022-12-20T14:35:23.089Z,25.73
2022-12-20T14:37:55.783Z,23.10
2022-12-20T14:40:21.795Z,24.77
2022-12-20T14:42:46.051Z,25.65
2022-12-20T14:45:21.528Z,25.70
2022-12-20T14:47:52.948Z,25.83
2022-12-20T14:50:24.402Z,25.17
2022-12-20T14:52:48.279Z,22.38
2022-12-20T14:55:19.708Z,23.98
2022-12-20T14:57:50.443Z,25.00
2022-12-20T15:00:22.529Z,24.63
2022-12-20T15:02:52.969Z,25.60
2022-12-20T15:05:54.699Z,30.70
2022-12-20T15:08:22.009Z,26.10
2022-12-20T15:10:55.328Z,26.20
2022-12-20T15:13:21.774Z,27.13
2022-12-20T15:15:46.135Z,25.60
2022-12-20T15:18:14.663Z,28.98
2022-12-20T15:20:38.337Z,25.98
2022-12-20T15:23:03.435Z,26.45
2022-12-20T15:25:27.126Z,26.90
2022-12-20T15:27:50.968Z,26.90
2022-12-20T15:30:15.600Z,29.95
2022-12-20T15:32:54.138Z,29.35
2022-12-20T15:35:19.107Z,28.92
2022-12-20T15:37:42.824Z,25.70
2022-12-20T15:40:13.953Z,31.40
2022-12-20T15:42:37.758Z,31.10
2022-12-20T15:45:01.755Z,28.17
2022-12-20T15:47:26.024Z,33.83
2022-12-20T15:49:50.647Z,30.88
2022-12-20T15:52:21.040Z,30.98
2022-12-20T15:54:44.931Z,31.08
2022-12-20T15:57:15.558Z,31.25
2022-12-20T16:02:26.303Z,30.92
2022-12-20T16:04:50.665Z,39.08
2022-12-20T16:07:14.692Z,31.33
2022-12-20T16:09:38.300Z,37.88
2022-12-20T16:12:02.036Z,40.67
2022-12-20T16:14:28.549Z,30.20
2022-12-20T16:16:52.782Z,31.25
2022-12-20T16:19:16.642Z,32.50
2022-12-20T16:21:46.667Z,37.95
2022-12-20T16:24:14.719Z,40.40
2022-12-20T16:26:38.433Z,41.40
2022-12-20T16:29:02.111Z,34.47
2022-12-20T16:31:32.951Z,45.40
2022-12-20T16:33:57.406Z,40.95
2022-12-20T16:36:21.142Z,43.65
2022-12-20T16:38:45.172Z,40.20
2022-12-20T16:41:15.802Z,35.70
2022-12-20T16:43:39.452Z,41.65
2022-12-20T16:46:03.126Z,37.53
2022-12-20T16:48:28.197Z,39.00
2022-12-20T16:50:51.888Z,39.15
2022-12-20T16:53:16.730Z,36.17
2022-12-20T16:55:40.372Z,39.97
2022-12-20T16:58:04.082Z,38.63
2022-12-20T17:00:28.463Z,38.35
2022-12-20T17:02:52.904Z,42.17
2022-12-20T17:05:27.505Z,42.33
2022-12-20T17:07:51.610Z,42.88
2022-12-20T17:10:15.324Z,43.13
2022-12-20T17:12:39.104Z,41.78
2022-12-20T17:15:03.149Z,42.75
2022-12-20T17:17:26.835Z,34.92
2022-12-20T17:19:50.725Z,40.60
2022-12-20T17:22:25.456Z,52.08
2022-12-20T17:24:49.170Z,44.05
2022-12-20T17:27:13.193Z,50.60
2022-12-20T17:29:36.875Z,43.20
2022-12-20T17:32:00.703Z,40.80
2022-12-20T17:34:26.553Z,42.55
2022-12-20T17:36:52.372Z,39.03
2022-12-20T17:39:18.220Z,41.22
2022-12-20T17:41:42.686Z,40.90
2022-12-20T17:44:07.804Z,40.15
2022-12-20T17:46:31.986Z,41.28
2022-12-20T17:48:57.310Z,36.70
2022-12-20T17:51:24.036Z,39.80
2022-12-20T17:53:49.281Z,38.08
2022-12-20T17:56:18.250Z,37.75
2022-12-20T17:58:42.094Z,41.05
2022-12-20T18:01:05.935Z,35.85
2022-12-20T18:04:02.303Z,40.28
2022-12-20T18:06:13.467Z,42.28
2022-12-20T18:08:37.159Z,41.05
2022-12-20T18:11:00.786Z,44.13
2022-12-20T18:13:25.847Z,37.20
2022-12-20T18:15:49.567Z,44.10
2022-12-20T18:18:13.154Z,44.47
2022-12-20T18:20:36.813Z,39.08
2022-12-20T18:23:00.422Z,38.63
2022-12-20T18:25:24.168Z,36.47
2022-12-20T18:27:47.786Z,40.13
2022-12-20T18:30:14.277Z,40.00
2022-12-20T18:32:37.891Z,36.15
2022-12-20T18:35:01.627Z,43.50
2022-12-20T18:37:25.888Z,41.53
2022-12-20T18:39:49.866Z,39.85
2022-12-20T18:42:13.506Z,38.50
2022-12-20T18:44:37.181Z,41.45
2022-12-20T18:47:02.907Z,38.67
2022-12-20T18:49:26.695Z,42.17
2022-12-20T18:51:50.283Z,38.83
2022-12-20T18:54:15.213Z,39.67
2022-12-20T18:56:40.681Z,59.70
2022-12-20T18:59:11.479Z,52.92
2022-12-20T19:01:37.603Z,47.25
2022-12-20T19:04:04.220Z,61.00
2022-12-20T19:06:28.395Z,47.22
2022-12-20T19:08:52.174Z,64.20
2022-12-20T19:11:18.233Z,44.17
2022-12-20T19:13:43.344Z,44.08
2022-12-20T19:16:09.561Z,37.90
2022-12-20T19:18:33.504Z,37.00
2022-12-20T19:21:07.419Z,37.67
2022-12-20T19:23:31.099Z,37.85
2022-12-20T19:25:59.812Z,36.20
2022-12-20T19:28:26.635Z,34.28
2022-12-20T19:30:50.297Z,35.47
2022-12-20T19:33:14.313Z,38.00
2022-12-20T19:38:22.974Z,33.60
2022-12-20T19:40:54.312Z,31.77
2022-12-20T19:43:17.952Z,35.47
2022-12-20T19:45:41.633Z,38.85
2022-12-20T19:48:06.389Z,35.47
2022-12-20T19:50:30.387Z,38.13
2022-12-20T19:52:54.078Z,39.58
2022-12-20T19:55:19.071Z,44.92
2022-12-20T19:57:42.701Z,44.33
2022-12-20T20:00:10.405Z,42.53
2022-12-20T20:02:37.034Z,42.00
2022-12-20T20:05:00.728Z,35.97
2022-12-20T20:07:24.467Z,38.28
2022-12-20T20:09:48.095Z,42.28
2022-12-20T20:12:13.189Z,39.88
2022-12-20T20:14:36.805Z,39.63
2022-12-20T20:17:00.520Z,38.42
2022-12-20T20:19:24.217Z,39.55
2022-12-20T20:21:49.101Z,42.80
2022-12-20T20:24:12.974Z,40.85
2022-12-20T20:26:36.745Z,39.55
2022-12-20T20:29:02.729Z,40.65
2022-12-20T20:31:26.555Z,35.25
2022-12-20T20:33:51.001Z,40.25
2022-12-20T20:36:17.464Z,42.97
2022-12-20T20:38:41.242Z,45.30
2022-12-20T20:41:04.958Z,40.85
2022-12-20T20:43:29.815Z,37.28
2022-12-20T20:45:55.199Z,39.63
2022-12-20T20:48:19.672Z,42.17
2022-12-20T20:50:43.710Z,34.20
2022-12-20T20:53:07.745Z,39.38
2022-12-20T20:55:31.518Z,38.60
2022-12-20T20:57:55.130Z,40.97
2022-12-20T21:00:19.569Z,40.35
2022-12-20T21:02:45.430Z,40.53
2022-12-20T21:07:54.768Z,38.60
2022-12-20T21:10:18.724Z,41.42
2022-12-20T21:12:42.464Z,40.72
2022-12-20T21:15:24.707Z,43.30
2022-12-20T21:17:50.151Z,43.45
2022-12-20T21:20:14.977Z,39.72
2022-12-20T21:22:38.796Z,35.50
2022-12-20T21:25:02.387Z,38.55
2022-12-20T21:27:26.179Z,35.47
2022-12-20T21:29:49.803Z,39.85
2022-12-20T21:32:13.510Z,35.00
2022-12-20T21:34:38.526Z,38.72
2022-12-20T21:37:03.066Z,37.03
2022-12-20T21:39:27.063Z,35.15
2022-12-20T21:41:50.777Z,41.97
2022-12-20T21:44:14.653Z,37.38
2022-12-20T21:46:38.830Z,37.88
2022-12-20T21:49:02.619Z,37.97
2022-12-20T21:51:29.472Z,37.58
2022-12-20T21:53:55.080Z,36.83
2022-12-20T21:56:19.937Z,38.40
2022-12-20T21:58:44.592Z,37.78
2022-12-20T22:01:09.229Z,37.08
2022-12-20T22:03:33.153Z,35.05
2022-12-20T22:05:57.390Z,39.67
2022-12-20T22:08:24.411Z,36.58
2022-12-20T22:10:49.958Z,37.95
2022-12-20T22:13:14.111Z,38.50
2022-12-20T22:15:38.176Z,38.55
2022-12-20T22:18:01.776Z,41.07
2022-12-20T22:20:25.686Z,36.55
2022-12-20T22:22:49.279Z,40.22
2022-12-20T22:25:14.411Z,42.95
2022-12-20T22:27:38.012Z,41.83
2022-12-20T22:30:01.740Z,36.40
2022-12-20T22:32:25.589Z,38.78
2022-12-20T22:34:49.248Z,35.97
2022-12-20T22:37:12.990Z,36.53
2022-12-20T22:39:36.888Z,41.20
2022-12-20T22:42:01.867Z,41.33
2022-12-20T22:44:25.617Z,37.92
2022-12-20T22:46:49.245Z,38.58
2022-12-20T22:49:18.446Z,43.67
2022-12-20T22:51:42.087Z,43.10
2022-12-20T22:54:05.926Z,39.15
2022-12-20T22:56:29.986Z,44.60
2022-12-20T22:58:55.221Z,37.30
2022-12-20T23:01:21.347Z,39.97
2022-12-20T23:03:45.595Z,38.63
2022-12-20T23:06:13.149Z,36.70
2022-12-20T23:08:38.224Z,39.65
2022-12-20T23:11:20.061Z,39.23
2022-12-20T23:14:01.520Z,37.70
2022-12-20T23:16:27.363Z,39.83
2022-12-20T23:18:51.136Z,40.45
2022-12-20T23:21:32.088Z,39.15
2022-12-20T23:23:56.512Z,38.28
2022-12-20T23:26:20.236Z,41.10
2022-12-20T23:28:44.546Z,40.53
2022-12-20T23:31:09.505Z,36.90
2022-12-20T23:33:34.781Z,40.17
2022-12-20T23:35:58.692Z,39.83
2022-12-20T23:38:22.378Z,40.65
2022-12-20T23:40:46.004Z,43.25
2022-12-20T23:43:09.748Z,42.05
2022-12-20T23:45:33.487Z,40.47
2022-12-20T23:47:57.283Z,41.95
2022-12-20T23:50:22.329Z,39.22
2022-12-20T23:52:46.610Z,35.55
2022-12-20T23:55:11.229Z,40.63
2022-12-20T23:57:34.990Z,43.58
2022-12-20T23:59:58.679Z,42.55
